sensor_id;sensor_type;location;lat;lon;timestamp;pressure;altitude;pressure_sealevel;temperature;humidity
22580;BME280;11456;47.030;15.396;2024-01-30T00:00:03;99509.59;;;-2.94;100.00
22580;BME280;11456;47.030;15.396;2024-01-30T00:02:31;99515.72;;;-2.92;100.00
22580;BME280;11456;47.030;15.396;2024-01-30T00:04:58;99511.22;;;-2.85;100.00
22580;BME280;11456;47.030;15.396;2024-01-30T00:07:25;99516.69;;;-2.99;100.00
22580;BME280;11456;47.030;15.396;2024-01-30T00:09:52;99505.94;;;-2.87;100.00
22580;BME280;11456;47.030;15.396;2024-01-30T00:12:19;99512.31;;;-3.00;100.00
22580;BME280;11456;47.030;15.396;2024-01-30T00:14:46;99505.16;;;-2.90;100.00
22580;BME280;11456;47.030;15.396;2024-01-30T00:17:12;99506.56;;;-2.69;100.00
22580;BME280;11456;47.030;15.396;2024-01-30T00:19:39;99503.75;;;-2.59;100.00
22580;BME280;11456;47.030;15.396;2024-01-30T00:22:06;99500.31;;;-2.64;100.00
22580;BME280;11456;47.030;15.396;2024-01-30T00:24:34;99496.34;;;-2.38;100.00
22580;BME280;11456;47.030;15.396;2024-01-30T00:27:01;99507.09;;;-3.03;100.00
22580;BME280;11456;47.030;15.396;2024-01-30T00:29:28;99511.44;;;-3.00;100.00
22580;BME280;11456;47.030;15.396;2024-01-30T00:31:57;99509.81;;;-3.07;100.00
22580;BME280;11456;47.030;15.396;2024-01-30T00:34:24;99518.72;;;-3.14;100.00
22580;BME280;11456;47.030;15.396;2024-01-30T00:36:51;99519.81;;;-3.32;100.00
22580;BME280;11456;47.030;15.396;2024-01-30T00:39:17;99517.06;;;-3.21;100.00
22580;BME280;11456;47.030;15.396;2024-01-30T00:41:46;99520.50;;;-3.19;100.00
22580;BME280;11456;47.030;15.396;2024-01-30T00:44:13;99521.34;;;-3.14;100.00
22580;BME280;11456;47.030;15.396;2024-01-30T00:46:39;99515.69;;;-2.90;100.00
22580;BME280;11456;47.030;15.396;2024-01-30T00:49:06;99513.19;;;-2.99;100.00
22580;BME280;11456;47.030;15.396;2024-01-30T00:51:33;99510.25;;;-2.30;100.00
22580;BME280;11456;47.030;15.396;2024-01-30T00:54:00;99520.47;;;-2.61;100.00
22580;BME280;11456;47.030;15.396;2024-01-30T00:56:27;99515.13;;;-3.12;100.00
22580;BME280;11456;47.030;15.396;2024-01-30T00:58:54;99521.38;;;-3.19;100.00
22580;BME280;11456;47.030;15.396;2024-01-30T01:01:20;99511.50;;;-3.03;100.00
22580;BME280;11456;47.030;15.396;2024-01-30T01:03:47;99505.13;;;-2.89;100.00
22580;BME280;11456;47.030;15.396;2024-01-30T01:06:15;99508.25;;;-3.20;100.00
22580;BME280;11456;47.030;15.396;2024-01-30T01:08:42;99503.88;;;-3.21;100.00
22580;BME280;11456;47.030;15.396;2024-01-30T01:11:09;99500.91;;;-3.00;100.00
22580;BME280;11456;47.030;15.396;2024-01-30T01:13:36;99504.19;;;-2.86;100.00
22580;BME280;11456;47.030;15.396;2024-01-30T01:16:03;99504.88;;;-3.32;100.00
22580;BME280;11456;47.030;15.396;2024-01-30T01:18:30;99499.41;;;-3.16;100.00
22580;BME280;11456;47.030;15.396;2024-01-30T01:20:57;99501.72;;;-3.55;100.00
22580;BME280;11456;47.030;15.396;2024-01-30T01:23:24;99500.63;;;-3.40;100.00
22580;BME280;11456;47.030;15.396;2024-01-30T01:25:50;99498.03;;;-3.45;100.00
22580;BME280;11456;47.030;15.396;2024-01-30T01:28:17;99506.19;;;-3.60;100.00
22580;BME280;11456;47.030;15.396;2024-01-30T01:30:45;99497.66;;;-3.80;100.00
22580;BME280;11456;47.030;15.396;2024-01-30T01:33:12;99489.84;;;-3.86;100.00
22580;BME280;11456;47.030;15.396;2024-01-30T01:35:41;99484.31;;;-3.65;100.00
22580;BME280;11456;47.030;15.396;2024-01-30T01:38:08;99489.41;;;-3.53;100.00
22580;BME280;11456;47.030;15.396;2024-01-30T01:40:34;99486.19;;;-3.76;100.00
22580;BME280;11456;47.030;15.396;2024-01-30T01:43:03;99493.03;;;-3.63;100.00
22580;BME280;11456;47.030;15.396;2024-01-30T01:45:31;99489.84;;;-3.25;100.00
22580;BME280;11456;47.030;15.396;2024-01-30T01:47:58;99496.09;;;-3.31;100.00
22580;BME280;11456;47.030;15.396;2024-01-30T01:50:26;99494.59;;;-3.47;100.00
22580;BME280;11456;47.030;15.396;2024-01-30T01:52:54;99494.63;;;-3.50;100.00
22580;BME280;11456;47.030;15.396;2024-01-30T01:55:22;99492.31;;;-3.73;100.00
22580;BME280;11456;47.030;15.396;2024-01-30T01:57:52;99496.06;;;-3.93;100.00
22580;BME280;11456;47.030;15.396;2024-01-30T02:00:20;99498.84;;;-4.06;100.00
22580;BME280;11456;47.030;15.396;2024-01-30T02:02:47;99493.38;;;-3.89;100.00
22580;BME280;11456;47.030;15.396;2024-01-30T02:05:15;99495.69;;;-3.65;100.00
22580;BME280;11456;47.030;15.396;2024-01-30T02:07:43;99488.00;;;-3.78;100.00
22580;BME280;11456;47.030;15.396;2024-01-30T02:10:10;99487.34;;;-3.98;100.00
22580;BME280;11456;47.030;15.396;2024-01-30T02:12:37;99478.66;;;-4.03;100.00
22580;BME280;11456;47.030;15.396;2024-01-30T02:15:05;99478.16;;;-3.66;100.00
22580;BME280;11456;47.030;15.396;2024-01-30T02:17:33;99488.56;;;-3.56;100.00
22580;BME280;11456;47.030;15.396;2024-01-30T02:20:01;99485.91;;;-3.55;100.00
22580;BME280;11456;47.030;15.396;2024-01-30T02:22:28;99489.94;;;-3.28;100.00
22580;BME280;11456;47.030;15.396;2024-01-30T02:24:56;99474.09;;;-3.27;100.00
22580;BME280;11456;47.030;15.396;2024-01-30T02:27:22;99477.75;;;-3.38;100.00
22580;BME280;11456;47.030;15.396;2024-01-30T02:29:49;99480.97;;;-3.79;100.00
22580;BME280;11456;47.030;15.396;2024-01-30T02:32:16;99480.84;;;-3.70;100.00
22580;BME280;11456;47.030;15.396;2024-01-30T02:34:43;99480.56;;;-3.49;100.00
22580;BME280;11456;47.030;15.396;2024-01-30T02:37:09;99474.84;;;-3.81;100.00
22580;BME280;11456;47.030;15.396;2024-01-30T02:39:36;99488.09;;;-3.87;100.00
22580;BME280;11456;47.030;15.396;2024-01-30T02:42:03;99484.81;;;-4.05;100.00
22580;BME280;11456;47.030;15.396;2024-01-30T02:44:30;99478.69;;;-4.07;100.00
22580;BME280;11456;47.030;15.396;2024-01-30T02:46:57;99491.00;;;-4.10;100.00
22580;BME280;11456;47.030;15.396;2024-01-30T02:49:23;99481.22;;;-3.97;100.00
22580;BME280;11456;47.030;15.396;2024-01-30T02:51:51;99491.09;;;-4.21;100.00
22580;BME280;11456;47.030;15.396;2024-01-30T02:54:18;99491.84;;;-4.07;100.00
22580;BME280;11456;47.030;15.396;2024-01-30T02:56:45;99481.59;;;-4.31;100.00
22580;BME280;11456;47.030;15.396;2024-01-30T02:59:12;99483.94;;;-4.08;100.00
22580;BME280;11456;47.030;15.396;2024-01-30T03:01:44;99480.56;;;-4.18;100.00
22580;BME280;11456;47.030;15.396;2024-01-30T03:04:12;99473.03;;;-3.15;100.00
22580;BME280;11456;47.030;15.396;2024-01-30T03:06:44;99478.44;;;-3.24;100.00
22580;BME280;11456;47.030;15.396;2024-01-30T03:09:11;99479.38;;;-3.92;100.00
22580;BME280;11456;47.030;15.396;2024-01-30T03:11:38;99482.09;;;-3.97;100.00
22580;BME280;11456;47.030;15.396;2024-01-30T03:14:04;99477.81;;;-4.09;100.00
22580;BME280;11456;47.030;15.396;2024-01-30T03:16:31;99474.44;;;-4.17;100.00
22580;BME280;11456;47.030;15.396;2024-01-30T03:18:58;99474.66;;;-4.38;100.00
22580;BME280;11456;47.030;15.396;2024-01-30T03:21:25;99468.59;;;-4.45;100.00
22580;BME280;11456;47.030;15.396;2024-01-30T03:23:52;99459.63;;;-4.27;100.00
22580;BME280;11456;47.030;15.396;2024-01-30T03:26:19;99464.19;;;-4.44;100.00
22580;BME280;11456;47.030;15.396;2024-01-30T03:28:46;99457.06;;;-4.33;100.00
22580;BME280;11456;47.030;15.396;2024-01-30T03:31:15;99454.22;;;-4.15;100.00
22580;BME280;11456;47.030;15.396;2024-01-30T03:33:42;99458.88;;;-4.41;100.00
22580;BME280;11456;47.030;15.396;2024-01-30T03:36:09;99463.56;;;-4.69;100.00
22580;BME280;11456;47.030;15.396;2024-01-30T03:38:36;99459.81;;;-4.43;100.00
22580;BME280;11456;47.030;15.396;2024-01-30T03:41:03;99458.94;;;-4.44;100.00
22580;BME280;11456;47.030;15.396;2024-01-30T03:43:29;99457.25;;;-4.51;100.00
22580;BME280;11456;47.030;15.396;2024-01-30T03:45:56;99456.50;;;-4.64;100.00
22580;BME280;11456;47.030;15.396;2024-01-30T03:48:23;99462.78;;;-4.78;100.00
22580;BME280;11456;47.030;15.396;2024-01-30T03:50:50;99468.91;;;-4.79;100.00
22580;BME280;11456;47.030;15.396;2024-01-30T03:53:17;99471.53;;;-4.79;100.00
22580;BME280;11456;47.030;15.396;2024-01-30T03:55:44;99468.50;;;-4.35;100.00
22580;BME280;11456;47.030;15.396;2024-01-30T03:58:10;99476.66;;;-4.64;100.00
22580;BME280;11456;47.030;15.396;2024-01-30T04:00:37;99474.09;;;-4.70;100.00
22580;BME280;11456;47.030;15.396;2024-01-30T04:03:04;99469.81;;;-4.80;100.00
22580;BME280;11456;47.030;15.396;2024-01-30T04:05:31;99474.03;;;-4.66;100.00
22580;BME280;11456;47.030;15.396;2024-01-30T04:07:57;99468.06;;;-4.81;100.00
22580;BME280;11456;47.030;15.396;2024-01-30T04:10:24;99471.59;;;-4.84;100.00
22580;BME280;11456;47.030;15.396;2024-01-30T04:12:51;99465.22;;;-4.57;100.00
22580;BME280;11456;47.030;15.396;2024-01-30T04:15:18;99472.31;;;-4.67;100.00
22580;BME280;11456;47.030;15.396;2024-01-30T04:17:45;99469.66;;;-4.65;100.00
22580;BME280;11456;47.030;15.396;2024-01-30T04:20:15;99466.22;;;-4.70;100.00
22580;BME280;11456;47.030;15.396;2024-01-30T04:22:44;99466.13;;;-4.61;100.00
22580;BME280;11456;47.030;15.396;2024-01-30T04:25:12;99469.31;;;-4.32;100.00
22580;BME280;11456;47.030;15.396;2024-01-30T04:27:39;99467.84;;;-4.60;100.00
22580;BME280;11456;47.030;15.396;2024-01-30T04:30:06;99476.84;;;-4.81;100.00
22580;BME280;11456;47.030;15.396;2024-01-30T04:32:33;99469.53;;;-4.53;100.00
22580;BME280;11456;47.030;15.396;2024-01-30T04:35:00;99474.78;;;-4.50;100.00
22580;BME280;11456;47.030;15.396;2024-01-30T04:37:27;99466.00;;;-4.49;100.00
22580;BME280;11456;47.030;15.396;2024-01-30T04:39:54;99468.84;;;-4.72;100.00
22580;BME280;11456;47.030;15.396;2024-01-30T04:42:21;99465.94;;;-4.43;100.00
22580;BME280;11456;47.030;15.396;2024-01-30T04:44:47;99471.03;;;-4.28;100.00
22580;BME280;11456;47.030;15.396;2024-01-30T04:47:14;99464.06;;;-4.35;100.00
22580;BME280;11456;47.030;15.396;2024-01-30T04:49:41;99470.94;;;-4.19;100.00
22580;BME280;11456;47.030;15.396;2024-01-30T04:52:09;99467.78;;;-4.54;100.00
22580;BME280;11456;47.030;15.396;2024-01-30T04:54:35;99469.72;;;-4.71;100.00
22580;BME280;11456;47.030;15.396;2024-01-30T04:57:02;99467.78;;;-4.54;100.00
22580;BME280;11456;47.030;15.396;2024-01-30T04:59:29;99466.00;;;-4.49;100.00
22580;BME280;11456;47.030;15.396;2024-01-30T05:01:56;99461.63;;;-4.49;100.00
22580;BME280;11456;47.030;15.396;2024-01-30T05:04:23;99459.94;;;-4.56;100.00
22580;BME280;11456;47.030;15.396;2024-01-30T05:06:50;99472.22;;;-4.55;100.00
22580;BME280;11456;47.030;15.396;2024-01-30T05:09:16;99467.84;;;-4.60;100.00
22580;BME280;11456;47.030;15.396;2024-01-30T05:11:43;99472.84;;;-4.33;100.00
22580;BME280;11456;47.030;15.396;2024-01-30T05:14:10;99471.03;;;-4.28;100.00
22580;BME280;11456;47.030;15.396;2024-01-30T05:16:38;99472.75;;;-4.27;100.00
22580;BME280;11456;47.030;15.396;2024-01-30T05:19:05;99476.13;;;-4.16;100.00
22580;BME280;11456;47.030;15.396;2024-01-30T05:21:32;99472.81;;;-4.31;100.00
22580;BME280;11456;47.030;15.396;2024-01-30T05:23:58;99480.16;;;-4.62;100.00
22580;BME280;11456;47.030;15.396;2024-01-30T05:26:25;99477.34;;;-4.46;100.00
22580;BME280;11456;47.030;15.396;2024-01-30T05:28:53;99474.59;;;-4.32;100.00
22580;BME280;11456;47.030;15.396;2024-01-30T05:31:19;99483.56;;;-4.51;100.00
22580;BME280;11456;47.030;15.396;2024-01-30T05:33:47;99479.22;;;-4.57;100.00
22580;BME280;11456;47.030;15.396;2024-01-30T05:36:14;99486.72;;;-4.19;100.00
22580;BME280;11456;47.030;15.396;2024-01-30T05:38:41;99480.00;;;-4.47;100.00
22580;BME280;11456;47.030;15.396;2024-01-30T05:41:08;99479.91;;;-4.38;100.00
22580;BME280;11456;47.030;15.396;2024-01-30T05:43:35;99483.47;;;-4.42;100.00
22580;BME280;11456;47.030;15.396;2024-01-30T05:46:02;99479.13;;;-4.48;100.00
22580;BME280;11456;47.030;15.396;2024-01-30T05:48:29;99482.63;;;-4.46;100.00
22580;BME280;11456;47.030;15.396;2024-01-30T05:50:55;99481.81;;;-4.52;100.00
22580;BME280;11456;47.030;15.396;2024-01-30T05:53:23;99482.81;;;-4.67;100.00
22580;BME280;11456;47.030;15.396;2024-01-30T05:55:50;99489.25;;;-5.00;100.00
22580;BME280;11456;47.030;15.396;2024-01-30T05:58:16;99489.88;;;-4.69;100.00
22580;BME280;11456;47.030;15.396;2024-01-30T06:00:43;99485.22;;;-4.42;100.00
22580;BME280;11456;47.030;15.396;2024-01-30T06:03:10;99481.88;;;-4.58;100.00
22580;BME280;11456;47.030;15.396;2024-01-30T06:05:37;99476.66;;;-4.61;100.00
22580;BME280;11456;47.030;15.396;2024-01-30T06:08:04;99471.34;;;-4.55;100.00
22580;BME280;11456;47.030;15.396;2024-01-30T06:10:31;99473.03;;;-4.48;100.00
22580;BME280;11456;47.030;15.396;2024-01-30T06:12:59;99468.56;;;-4.43;100.00
22580;BME280;11456;47.030;15.396;2024-01-30T06:15:26;99473.72;;;-4.34;100.00
22580;BME280;11456;47.030;15.396;2024-01-30T06:17:52;99464.94;;;-4.33;100.00
22580;BME280;11456;47.030;15.396;2024-01-30T06:20:19;99469.47;;;-4.44;100.00
22580;BME280;11456;47.030;15.396;2024-01-30T06:22:46;99467.66;;;-4.40;100.00
22580;BME280;11456;47.030;15.396;2024-01-30T06:25:13;99471.09;;;-4.34;100.00
22580;BME280;11456;47.030;15.396;2024-01-30T06:27:40;99469.59;;;-4.56;100.00
22580;BME280;11456;47.030;15.396;2024-01-30T06:30:07;99472.97;;;-4.45;100.00
22580;BME280;11456;47.030;15.396;2024-01-30T06:32:35;99479.78;;;-4.26;100.00
22580;BME280;11456;47.030;15.396;2024-01-30T06:35:02;99475.31;;;-4.18;100.00
22580;BME280;11456;47.030;15.396;2024-01-30T06:37:30;99472.81;;;-4.30;100.00
22580;BME280;11456;47.030;15.396;2024-01-30T06:39:56;99475.19;;;-4.09;100.00
22580;BME280;11456;47.030;15.396;2024-01-30T06:42:23;99476.28;;;-4.28;100.00
22580;BME280;11456;47.030;15.396;2024-01-30T06:44:50;99479.41;;;-3.95;100.00
22580;BME280;11456;47.030;15.396;2024-01-30T06:47:17;99477.59;;;-3.90;100.00
22580;BME280;11456;47.030;15.396;2024-01-30T06:49:44;99480.28;;;-3.95;100.00
22580;BME280;11456;47.030;15.396;2024-01-30T06:52:11;99488.81;;;-3.13;100.00
22580;BME280;11456;47.030;15.396;2024-01-30T06:54:38;99483.53;;;-3.13;100.00
22580;BME280;11456;47.030;15.396;2024-01-30T06:57:06;99483.53;;;-3.72;100.00
22580;BME280;11456;47.030;15.396;2024-01-30T06:59:38;99491.28;;;-3.64;100.00
22580;BME280;11456;47.030;15.396;2024-01-30T07:02:10;99490.53;;;-3.12;100.00
22580;BME280;11456;47.030;15.396;2024-01-30T07:04:37;99486.03;;;-2.51;100.00
22580;BME280;11456;47.030;15.396;2024-01-30T07:07:05;99493.84;;;-2.00;100.00
22580;BME280;11456;47.030;15.396;2024-01-30T07:09:32;99478.31;;;-1.32;100.00
22580;BME280;11456;47.030;15.396;2024-01-30T07:12:00;99482.22;;;-1.91;100.00
22580;BME280;11456;47.030;15.396;2024-01-30T07:14:27;99486.19;;;-1.71;100.00
22580;BME280;11456;47.030;15.396;2024-01-30T07:16:54;99482.91;;;-1.40;100.00
22580;BME280;11456;47.030;15.396;2024-01-30T07:19:20;99477.13;;;-1.59;100.00
22580;BME280;11456;47.030;15.396;2024-01-30T07:21:47;99474.72;;;-0.91;100.00
22580;BME280;11456;47.030;15.396;2024-01-30T07:24:14;99483.28;;;-0.82;100.00
22580;BME280;11456;47.030;15.396;2024-01-30T07:26:40;99483.50;;;-0.55;100.00
22580;BME280;11456;47.030;15.396;2024-01-30T07:29:07;99478.16;;;0.13;100.00
22580;BME280;11456;47.030;15.396;2024-01-30T07:31:34;99487.03;;;0.70;100.00
22580;BME280;11456;47.030;15.396;2024-01-30T07:34:01;99491.78;;;0.59;100.00
22580;BME280;11456;47.030;15.396;2024-01-30T07:36:29;99484.47;;;1.49;100.00
22580;BME280;11456;47.030;15.396;2024-01-30T07:38:55;99487.91;;;0.99;95.94
22580;BME280;11456;47.030;15.396;2024-01-30T07:41:22;99487.47;;;1.39;93.51
22580;BME280;11456;47.030;15.396;2024-01-30T07:43:51;99492.91;;;1.87;95.50
22580;BME280;11456;47.030;15.396;2024-01-30T07:46:20;99489.09;;;2.19;94.21
22580;BME280;11456;47.030;15.396;2024-01-30T07:48:46;99499.22;;;2.32;86.47
22580;BME280;11456;47.030;15.396;2024-01-30T07:51:14;99493.63;;;1.92;90.71
22580;BME280;11456;47.030;15.396;2024-01-30T07:53:41;99492.41;;;2.72;85.44
22580;BME280;11456;47.030;15.396;2024-01-30T07:56:08;99489.66;;;2.52;87.56
22580;BME280;11456;47.030;15.396;2024-01-30T07:58:35;99492.13;;;2.33;87.18
22580;BME280;11456;47.030;15.396;2024-01-30T08:01:01;99486.13;;;2.51;87.38
22580;BME280;11456;47.030;15.396;2024-01-30T08:03:29;99483.41;;;2.98;79.72
22580;BME280;11456;47.030;15.396;2024-01-30T08:05:56;99489.09;;;2.89;81.54
22580;BME280;11456;47.030;15.396;2024-01-30T08:08:23;99492.75;;;2.63;83.49
22580;BME280;11456;47.030;15.396;2024-01-30T08:10:49;99491.69;;;3.13;78.11
22580;BME280;11456;47.030;15.396;2024-01-30T08:13:16;99495.34;;;3.33;78.35
22580;BME280;11456;47.030;15.396;2024-01-30T08:15:43;99498.31;;;2.80;79.64
22580;BME280;11456;47.030;15.396;2024-01-30T08:18:10;99496.59;;;2.56;81.89
22580;BME280;11456;47.030;15.396;2024-01-30T08:20:37;99500.22;;;3.00;78.33
22580;BME280;11456;47.030;15.396;2024-01-30T08:23:03;99499.88;;;3.07;77.52
22580;BME280;11456;47.030;15.396;2024-01-30T08:25:30;99502.41;;;2.89;76.41
22580;BME280;11456;47.030;15.396;2024-01-30T08:27:57;99501.38;;;3.58;73.04
22580;BME280;11456;47.030;15.396;2024-01-30T08:30:24;99499.25;;;3.66;73.83
22580;BME280;11456;47.030;15.396;2024-01-30T08:32:51;99495.91;;;3.61;74.21
22580;BME280;11456;47.030;15.396;2024-01-30T08:35:18;99490.41;;;3.86;70.54
22580;BME280;11456;47.030;15.396;2024-01-30T08:37:45;99499.16;;;3.89;68.76
22580;BME280;11456;47.030;15.396;2024-01-30T08:40:12;99487.94;;;3.17;71.82
22580;BME280;11456;47.030;15.396;2024-01-30T08:42:39;99485.50;;;2.68;79.16
22580;BME280;11456;47.030;15.396;2024-01-30T08:45:06;99487.56;;;3.90;72.31
22580;BME280;11456;47.030;15.396;2024-01-30T08:47:33;99490.56;;;3.83;69.04
22580;BME280;11456;47.030;15.396;2024-01-30T08:50:00;99484.53;;;4.57;68.11
22580;BME280;11456;47.030;15.396;2024-01-30T08:52:27;99479.97;;;3.17;70.93
22580;BME280;11456;47.030;15.396;2024-01-30T08:54:54;99482.03;;;3.53;71.65
22580;BME280;11456;47.030;15.396;2024-01-30T08:57:21;99474.97;;;4.72;65.15
22580;BME280;11456;47.030;15.396;2024-01-30T08:59:47;99473.16;;;4.91;61.78
22580;BME280;11456;47.030;15.396;2024-01-30T09:02:14;99477.75;;;5.06;61.35
22580;BME280;11456;47.030;15.396;2024-01-30T09:04:43;99482.22;;;3.70;66.98
22580;BME280;11456;47.030;15.396;2024-01-30T09:07:10;99475.22;;;4.47;67.26
22580;BME280;11456;47.030;15.396;2024-01-30T09:09:38;99474.47;;;4.04;67.13
22580;BME280;11456;47.030;15.396;2024-01-30T09:12:07;99474.59;;;5.17;66.13
22580;BME280;11456;47.030;15.396;2024-01-30T09:14:36;99475.19;;;5.05;64.34
22580;BME280;11456;47.030;15.396;2024-01-30T09:17:03;99477.00;;;4.08;68.97
22580;BME280;11456;47.030;15.396;2024-01-30T09:19:30;99463.00;;;5.35;65.72
22580;BME280;11456;47.030;15.396;2024-01-30T09:21:57;99474.91;;;4.73;66.07
22580;BME280;11456;47.030;15.396;2024-01-30T09:24:25;99469.97;;;5.91;62.73
22580;BME280;11456;47.030;15.396;2024-01-30T09:26:52;99459.09;;;5.59;58.22
22580;BME280;11456;47.030;15.396;2024-01-30T09:29:19;99473.09;;;5.82;60.35
22580;BME280;11456;47.030;15.396;2024-01-30T09:31:46;99479.38;;;4.34;66.39
22580;BME280;11456;47.030;15.396;2024-01-30T09:34:13;99473.81;;;6.02;59.03
22580;BME280;11456;47.030;15.396;2024-01-30T09:36:40;99469.31;;;5.86;60.44
22580;BME280;11456;47.030;15.396;2024-01-30T09:39:07;99464.28;;;5.80;60.30
22580;BME280;11456;47.030;15.396;2024-01-30T09:41:41;99462.84;;;7.21;55.76
22580;BME280;11456;47.030;15.396;2024-01-30T09:44:11;99462.41;;;6.82;54.75
22580;BME280;11456;47.030;15.396;2024-01-30T09:46:38;99465.28;;;6.62;56.38
22580;BME280;11456;47.030;15.396;2024-01-30T09:49:06;99462.53;;;6.79;54.85
22580;BME280;11456;47.030;15.396;2024-01-30T09:51:34;99464.03;;;7.77;52.00
22580;BME280;11456;47.030;15.396;2024-01-30T09:54:02;99453.31;;;7.77;50.62
22580;BME280;11456;47.030;15.396;2024-01-30T09:56:29;99452.63;;;6.81;53.87
22580;BME280;11456;47.030;15.396;2024-01-30T09:58:56;99449.66;;;8.22;51.30
22580;BME280;11456;47.030;15.396;2024-01-30T10:01:23;99442.91;;;8.31;48.34
22580;BME280;11456;47.030;15.396;2024-01-30T10:03:51;99450.72;;;8.05;48.79
22580;BME280;11456;47.030;15.396;2024-01-30T10:06:19;99444.81;;;8.85;48.40
22580;BME280;11456;47.030;15.396;2024-01-30T10:08:49;99442.81;;;9.16;47.10
22580;BME280;11456;47.030;15.396;2024-01-30T10:11:16;99442.91;;;8.31;48.09
22580;BME280;11456;47.030;15.396;2024-01-30T10:13:42;99431.78;;;8.65;47.06
22580;BME280;11456;47.030;15.396;2024-01-30T10:16:09;99437.34;;;8.62;49.06
22580;BME280;11456;47.030;15.396;2024-01-30T10:18:36;99443.03;;;8.14;49.84
22580;BME280;11456;47.030;15.396;2024-01-30T10:21:03;99431.59;;;9.09;47.45
22580;BME280;11456;47.030;15.396;2024-01-30T10:23:30;99429.47;;;8.73;46.76
22580;BME280;11456;47.030;15.396;2024-01-30T10:26:03;99442.88;;;8.17;47.80
22580;BME280;11456;47.030;15.396;2024-01-30T10:28:30;99425.19;;;9.12;46.97
22580;BME280;11456;47.030;15.396;2024-01-30T10:30:58;99426.41;;;8.65;45.54
22580;BME280;11456;47.030;15.396;2024-01-30T10:33:31;99421.06;;;8.37;46.73
22580;BME280;11456;47.030;15.396;2024-01-30T10:36:02;99421.59;;;8.28;45.95
22580;BME280;11456;47.030;15.396;2024-01-30T10:38:31;99420.13;;;8.08;46.25
22580;BME280;11456;47.030;15.396;2024-01-30T10:41:01;99409.81;;;8.59;45.91
22580;BME280;11456;47.030;15.396;2024-01-30T10:43:32;99402.63;;;9.14;46.10
22580;BME280;11456;47.030;15.396;2024-01-30T10:46:18;99405.16;;;10.22;42.39
22580;BME280;11456;47.030;15.396;2024-01-30T10:48:58;99397.72;;;9.21;47.77
22580;BME280;11456;47.030;15.396;2024-01-30T10:51:29;99399.56;;;9.33;44.54
22580;BME280;11456;47.030;15.396;2024-01-30T10:53:56;99396.91;;;8.92;46.40
22580;BME280;11456;47.030;15.396;2024-01-30T10:56:24;99393.69;;;9.14;44.40
22580;BME280;11456;47.030;15.396;2024-01-30T10:58:53;99381.00;;;9.16;44.76
22580;BME280;11456;47.030;15.396;2024-01-30T11:01:21;99382.63;;;9.45;43.25
22580;BME280;11456;47.030;15.396;2024-01-30T11:03:52;99378.63;;;9.38;43.20
22580;BME280;11456;47.030;15.396;2024-01-30T11:06:23;99375.88;;;9.52;42.94
22580;BME280;11456;47.030;15.396;2024-01-30T11:09:11;99370.97;;;9.72;42.24
22580;BME280;11456;47.030;15.396;2024-01-30T11:11:55;99359.81;;;10.28;41.05
22580;BME280;11456;47.030;15.396;2024-01-30T11:14:24;99359.13;;;9.87;42.08
22580;BME280;11456;47.030;15.396;2024-01-30T11:16:52;99355.25;;;9.65;42.10
22580;BME280;11456;47.030;15.396;2024-01-30T11:19:23;99361.56;;;9.64;41.48
22580;BME280;11456;47.030;15.396;2024-01-30T11:21:53;99362.19;;;9.16;43.40
22580;BME280;11456;47.030;15.396;2024-01-30T11:24:20;99356.50;;;8.94;42.91
22580;BME280;11456;47.030;15.396;2024-01-30T11:26:55;99348.06;;;9.39;42.38
22580;BME280;11456;47.030;15.396;2024-01-30T11:29:27;99353.97;;;9.84;40.98
22580;BME280;11456;47.030;15.396;2024-01-30T11:31:55;99352.47;;;10.56;41.02
22580;BME280;11456;47.030;15.396;2024-01-30T11:34:23;99344.78;;;10.12;40.84
22580;BME280;11456;47.030;15.396;2024-01-30T11:36:58;99347.31;;;10.27;40.97
22580;BME280;11456;47.030;15.396;2024-01-30T11:39:26;99339.13;;;10.16;41.15
22580;BME280;11456;47.030;15.396;2024-01-30T11:41:53;99348.16;;;9.90;41.71
22580;BME280;11456;47.030;15.396;2024-01-30T11:44:21;99341.00;;;9.51;42.33
22580;BME280;11456;47.030;15.396;2024-01-30T11:46:49;99338.41;;;9.49;42.55
22580;BME280;11456;47.030;15.396;2024-01-30T11:49:16;99335.63;;;9.63;42.33
22580;BME280;11456;47.030;15.396;2024-01-30T11:51:47;99333.47;;;9.69;42.10
22580;BME280;11456;47.030;15.396;2024-01-30T11:54:16;99330.59;;;9.72;43.51
22580;BME280;11456;47.030;15.396;2024-01-30T11:56:43;99323.84;;;10.17;42.54
22580;BME280;11456;47.030;15.396;2024-01-30T11:59:10;99317.78;;;10.26;42.25
22580;BME280;11456;47.030;15.396;2024-01-30T12:01:37;99325.78;;;11.00;40.64
22580;BME280;11456;47.030;15.396;2024-01-30T12:04:04;99319.06;;;10.45;42.30
22580;BME280;11456;47.030;15.396;2024-01-30T12:06:36;99318.22;;;11.05;40.05
22580;BME280;11456;47.030;15.396;2024-01-30T12:09:03;99317.16;;;10.95;39.97
22580;BME280;11456;47.030;15.396;2024-01-30T12:11:30;99318.31;;;11.27;40.03
22580;BME280;11456;47.030;15.396;2024-01-30T12:13:57;99315.53;;;11.05;40.21
22580;BME280;11456;47.030;15.396;2024-01-30T12:16:24;99312.72;;;11.42;39.44
22580;BME280;11456;47.030;15.396;2024-01-30T12:18:59;99305.47;;;10.83;40.95
22580;BME280;11456;47.030;15.396;2024-01-30T12:21:26;99304.88;;;11.39;39.76
22580;BME280;11456;47.030;15.396;2024-01-30T12:23:53;99296.25;;;11.34;39.65
22580;BME280;11456;47.030;15.396;2024-01-30T12:26:20;99295.53;;;11.32;40.34
22580;BME280;11456;47.030;15.396;2024-01-30T12:28:50;99290.94;;;11.56;39.63
22580;BME280;11456;47.030;15.396;2024-01-30T12:31:17;99293.16;;;11.51;39.53
22580;BME280;11456;47.030;15.396;2024-01-30T12:33:43;99298.84;;;11.00;40.26
22580;BME280;11456;47.030;15.396;2024-01-30T12:36:11;99294.84;;;10.69;40.88
22580;BME280;11456;47.030;15.396;2024-01-30T12:38:38;99296.50;;;11.31;40.40
22580;BME280;11456;47.030;15.396;2024-01-30T12:41:07;99292.28;;;11.50;40.37
22580;BME280;11456;47.030;15.396;2024-01-30T12:43:37;99288.78;;;11.26;40.07
22580;BME280;11456;47.030;15.396;2024-01-30T12:46:06;99281.31;;;11.41;39.79
22580;BME280;11456;47.030;15.396;2024-01-30T12:48:36;99278.44;;;10.96;40.81